createdAt,value
2018-07-16T04:10:30.800Z,40
2018-07-16T04:10:56.263Z,40
2018-07-16T04:11:21.740Z,40
2018-07-16T04:11:47.166Z,40
2018-07-16T04:12:12.663Z,40
2018-07-16T04:12:38.176Z,40
2018-07-16T04:13:03.673Z,40
2018-07-16T04:13:29.139Z,40
2018-07-16T04:13:54.616Z,40
2018-07-16T04:14:20.206Z,40
2018-07-16T04:14:45.581Z,40
2018-07-16T04:15:11.101Z,45
2018-07-16T04:15:36.541Z,45
2018-07-16T04:16:02.037Z,45
2018-07-16T04:16:27.515Z,45
2018-07-16T04:16:52.979Z,45
2018-07-16T04:17:18.450Z,45
2018-07-16T04:17:43.955Z,45
2018-07-16T04:18:09.381Z,45
2018-07-16T04:18:34.914Z,45
2018-07-16T04:19:00.306Z,45
2018-07-16T04:19:25.797Z,45
2018-07-16T04:19:51.292Z,50
2018-07-16T04:20:16.787Z,50
2018-07-16T04:20:42.204Z,50
2018-07-16T04:21:07.787Z,50
2018-07-16T04:21:33.220Z,50
2018-07-16T04:21:58.685Z,50
2018-07-16T04:22:24.185Z,50
2018-07-16T04:22:49.611Z,50
2018-07-16T04:23:15.075Z,50
2018-07-16T04:23:40.568Z,50
2018-07-16T04:24:05.992Z,50
2018-07-16T04:24:31.465Z,50
2018-07-16T04:24:56.936Z,55
2018-07-16T04:25:22.407Z,55
2018-07-16T04:25:47.870Z,55
2018-07-16T04:26:13.315Z,55
2018-07-16T04:26:38.747Z,55
2018-07-16T04:27:04.240Z,55
2018-07-16T04:27:29.702Z,55
2018-07-16T04:27:55.179Z,55
2018-07-16T04:28:20.604Z,55
2018-07-16T04:28:46.096Z,60
2018-07-16T04:29:11.544Z,60
2018-07-16T04:29:37.037Z,60
2018-07-16T04:30:02.509Z,60
2018-07-16T04:30:27.982Z,60
2018-07-16T04:30:53.479Z,60
2018-07-16T04:31:18.948Z,60
2018-07-16T04:31:44.464Z,65
2018-07-16T04:32:09.931Z,65
2018-07-16T04:32:35.405Z,65
2018-07-16T04:33:00.885Z,65
2018-07-16T04:33:26.365Z,65
2018-07-16T04:33:51.825Z,70
2018-07-16T04:34:17.312Z,70
2018-07-16T04:34:42.765Z,70
2018-07-16T04:35:08.213Z,70
2018-07-16T04:35:33.692Z,70
2018-07-16T04:35:59.189Z,75
2018-07-16T04:36:24.625Z,75
2018-07-16T04:36:50.112Z,75
2018-07-16T04:37:15.609Z,75
2018-07-16T04:37:41.141Z,75
2018-07-16T04:38:06.585Z,75
2018-07-16T04:38:32.066Z,75
2018-07-16T04:40:01.435Z,80
2018-07-16T04:40:26.707Z,80
2018-07-16T04:40:52.199Z,85
2018-07-16T04:41:17.702Z,85
2018-07-16T04:41:43.200Z,90
2018-07-16T04:42:08.702Z,90
2018-07-16T04:42:34.204Z,90
2018-07-16T04:42:59.691Z,95
2018-07-16T04:43:25.192Z,95
2018-07-16T04:43:50.707Z,95
2018-07-16T04:44:16.223Z,95
2018-07-16T04:44:41.692Z,95
2018-07-16T04:45:07.219Z,100
2018-07-16T04:45:32.716Z,95
2018-07-16T04:45:58.202Z,95
2018-07-16T04:46:23.712Z,95
2018-07-16T04:46:49.234Z,95
2018-07-16T04:47:14.719Z,100
2018-07-16T04:47:40.218Z,100
2018-07-16T04:48:05.717Z,100
2018-07-16T04:48:31.203Z,105
2018-07-16T04:48:56.681Z,105
2018-07-16T04:49:22.186Z,105
2018-07-16T04:49:47.683Z,105
2018-07-16T04:50:13.182Z,105
2018-07-16T04:50:38.682Z,105
2018-07-16T04:51:04.158Z,110
2018-07-16T04:51:29.627Z,110
2018-07-16T04:51:55.137Z,110
2018-07-16T04:52:20.643Z,110
2018-07-16T04:52:46.151Z,110
2018-07-16T04:53:11.632Z,110
2018-07-16T04:53:37.137Z,115
2018-07-16T04:54:02.626Z,115
2018-07-16T04:54:28.089Z,120
2018-07-16T04:54:53.584Z,120
2018-07-16T04:55:19.101Z,120
2018-07-16T04:55:44.613Z,120
2018-07-16T04:56:10.097Z,120
2018-07-16T04:56:35.600Z,120
2018-07-16T04:57:01.102Z,120
2018-07-16T04:57:26.581Z,120
2018-07-16T04:57:52.114Z,125
2018-07-16T04:58:17.634Z,125
2018-07-16T04:58:43.107Z,125
2018-07-16T04:59:08.581Z,125
2018-07-16T04:59:34.118Z,125
2018-07-16T04:59:59.606Z,125
2018-07-16T05:00:25.111Z,125
2018-07-16T05:01:34.872Z,125
2018-07-16T05:02:00.358Z,125
2018-07-16T05:02:25.858Z,130
2018-07-16T05:02:51.338Z,130
2018-07-16T05:03:16.945Z,130
2018-07-16T05:03:42.395Z,130
2018-07-16T05:04:07.885Z,130
2018-07-16T05:05:26.797Z,130
2018-07-16T05:05:52.280Z,130
2018-07-16T05:06:17.785Z,130
2018-07-16T05:06:43.273Z,130
2018-07-16T05:07:08.790Z,130
2018-07-16T05:07:34.319Z,130
2018-07-16T05:07:59.814Z,130
2018-07-16T05:08:25.316Z,130
2018-07-16T05:08:50.858Z,130
2018-07-16T05:09:16.391Z,130
2018-07-16T05:09:41.921Z,135
2018-07-16T05:10:07.416Z,135
2018-07-16T05:10:32.900Z,135
2018-07-16T05:10:58.377Z,135
2018-07-16T05:11:23.882Z,135
2018-07-16T05:11:49.359Z,135
2018-07-16T05:12:14.851Z,135
2018-07-16T05:12:40.360Z,135
2018-07-16T05:13:05.859Z,135
2018-07-16T05:13:31.365Z,135
2018-07-16T05:13:56.881Z,135
2018-07-16T05:14:22.352Z,135
2018-07-16T05:14:47.839Z,135
2018-07-16T05:15:13.405Z,135
2018-07-16T05:15:38.931Z,135
2018-07-16T05:16:04.417Z,135
2018-07-16T05:16:29.904Z,135
2018-07-16T05:16:55.387Z,135
2018-07-16T05:17:20.903Z,135
2018-07-16T05:17:46.389Z,140
2018-07-16T05:18:11.964Z,145
2018-07-16T05:18:37.413Z,140
2018-07-16T05:19:02.874Z,140
2018-07-16T05:19:28.363Z,140
2018-07-16T05:19:53.874Z,140
2018-07-16T05:20:19.376Z,140
2018-07-16T05:21:33.265Z,140
2018-07-16T05:21:58.754Z,140
2018-07-16T05:22:24.237Z,140
2018-07-16T05:22:49.727Z,140
2018-07-16T05:23:15.226Z,145
2018-07-16T05:23:40.729Z,145
2018-07-16T05:24:06.283Z,145
2018-07-16T05:24:31.712Z,145
2018-07-16T05:24:57.193Z,145
2018-07-16T05:25:22.694Z,145
2018-07-16T05:25:48.217Z,145
2018-07-16T05:26:13.708Z,145
2018-07-16T05:26:39.197Z,145
2018-07-16T05:27:04.679Z,145
2018-07-16T05:27:30.185Z,145
2018-07-16T05:27:55.698Z,145
2018-07-16T05:28:21.183Z,145
2018-07-16T05:28:46.713Z,145
2018-07-16T05:29:12.189Z,150
2018-07-16T05:29:37.744Z,145
2018-07-16T05:30:03.259Z,145
2018-07-16T05:30:28.732Z,150
2018-07-16T05:30:54.258Z,150
2018-07-16T05:31:19.817Z,150
2018-07-16T05:31:45.317Z,150
2018-07-16T05:32:10.853Z,150
2018-07-16T05:32:36.506Z,150
2018-07-16T05:33:01.763Z,150
2018-07-16T05:33:27.251Z,150
2018-07-16T05:33:52.735Z,150
2018-07-16T05:34:18.259Z,150
2018-07-16T05:34:43.746Z,150
2018-07-16T05:35:09.240Z,150
2018-07-16T05:35:34.739Z,150
2018-07-16T05:36:00.204Z,150
2018-07-16T05:36:25.709Z,155
2018-07-16T05:36:51.176Z,155
2018-07-16T05:37:16.698Z,155
2018-07-16T05:37:42.215Z,155
2018-07-16T05:38:07.797Z,155
2018-07-16T05:38:33.241Z,155
2018-07-16T05:38:58.738Z,155
2018-07-16T05:39:24.239Z,155
2018-07-16T05:39:49.748Z,155
2018-07-16T05:40:15.228Z,155
2018-07-16T05:40:40.832Z,155
2018-07-16T05:41:06.335Z,155
2018-07-16T05:41:31.800Z,155
2018-07-16T05:41:57.312Z,160
2018-07-16T05:42:22.808Z,160
2018-07-16T05:42:48.280Z,160
2018-07-16T05:43:13.761Z,160
2018-07-16T05:43:39.441Z,160
2018-07-16T05:44:04.994Z,160
2018-07-16T05:44:30.420Z,160
2018-07-16T05:44:55.914Z,160
2018-07-16T05:45:21.377Z,160
2018-07-16T05:45:46.874Z,160
2018-07-16T05:46:12.342Z,160
2018-07-16T05:46:37.882Z,160
2018-07-16T05:47:03.333Z,165
2018-07-16T05:47:28.838Z,165
2018-07-16T05:47:54.309Z,165
2018-07-16T05:48:19.799Z,165
2018-07-16T05:48:45.277Z,165
2018-07-16T05:49:10.786Z,165
2018-07-16T05:49:36.295Z,165
2018-07-16T05:50:01.771Z,165
2018-07-16T05:50:27.270Z,165
2018-07-16T05:50:52.758Z,165
2018-07-16T05:51:18.249Z,170
2018-07-16T05:51:43.720Z,170
2018-07-16T05:52:09.226Z,170
2018-07-16T05:52:34.720Z,170
2018-07-16T05:53:00.256Z,170
2018-07-16T05:53:25.733Z,170
2018-07-16T05:53:51.182Z,170
2018-07-16T05:54:16.679Z,170
2018-07-16T05:54:42.144Z,170
2018-07-16T05:55:07.638Z,175
2018-07-16T05:55:33.145Z,175
2018-07-16T05:55:58.635Z,175
2018-07-16T05:56:24.138Z,175
2018-07-16T05:56:49.629Z,175
2018-07-16T05:57:15.152Z,175
2018-07-16T05:57:40.682Z,180
2018-07-16T05:58:06.216Z,180
2018-07-16T05:58:31.709Z,180
2018-07-16T05:58:57.211Z,180
2018-07-16T05:59:22.691Z,185
2018-07-16T05:59:48.224Z,185
2018-07-16T06:00:13.684Z,185
2018-07-16T06:00:39.154Z,185
2018-07-16T06:01:04.628Z,190
2018-07-16T06:01:30.118Z,190
2018-07-16T06:01:55.634Z,195
2018-07-16T06:02:21.173Z,195
2018-07-16T06:02:46.628Z,200
2018-07-16T06:03:12.150Z,210
2018-07-16T06:03:37.618Z,215
2018-07-16T06:04:03.162Z,225
2018-07-16T06:04:28.645Z,230
2018-07-16T06:04:54.133Z,235
2018-07-16T06:05:19.629Z,240
2018-07-16T06:05:45.137Z,245
2018-07-16T06:06:10.601Z,245
2018-07-16T06:06:36.114Z,255
2018-07-16T06:07:01.617Z,255
2018-07-16T06:07:27.131Z,260
2018-07-16T06:07:52.648Z,265
2018-07-16T06:08:18.127Z,270
2018-07-16T06:08:43.664Z,275
2018-07-16T06:09:09.158Z,280
2018-07-16T06:09:34.645Z,280
2018-07-16T06:10:00.152Z,285
2018-07-16T06:10:25.696Z,285
2018-07-16T06:10:51.179Z,285
2018-07-16T06:11:17.081Z,285
2018-07-16T06:11:42.987Z,295
2018-07-16T06:12:08.453Z,295
2018-07-16T06:12:33.920Z,305
2018-07-16T06:12:59.390Z,315
2018-07-16T06:13:24.878Z,320
2018-07-16T06:13:50.361Z,335
2018-07-16T06:14:15.888Z,340
2018-07-16T06:14:41.347Z,350
2018-07-16T06:15:06.839Z,350
2018-07-16T06:15:32.328Z,355
2018-07-16T06:15:57.855Z,365
2018-07-16T06:16:23.357Z,365
2018-07-16T06:16:48.898Z,375
2018-07-16T06:17:14.363Z,385
2018-07-16T06:17:39.887Z,395
2018-07-16T06:18:05.361Z,410
2018-07-16T06:18:30.887Z,425
2018-07-16T06:18:56.391Z,435
2018-07-16T06:19:21.900Z,445
2018-07-16T06:19:47.394Z,455
2018-07-16T06:20:12.877Z,465
2018-07-16T06:20:38.366Z,480
2018-07-16T06:21:03.856Z,480
2018-07-16T06:21:29.343Z,490
2018-07-16T06:21:54.846Z,505
2018-07-16T06:22:20.356Z,515
2018-07-16T06:22:45.848Z,520
2018-07-16T06:23:11.342Z,530
2018-07-16T06:23:36.842Z,540
2018-07-16T06:24:02.408Z,535
2018-07-16T06:24:27.901Z,540
2018-07-16T06:24:53.418Z,540
2018-07-16T06:25:18.929Z,540
2018-07-16T06:25:44.435Z,545
2018-07-16T06:26:09.924Z,545
2018-07-16T06:26:35.852Z,545
2018-07-16T06:27:01.237Z,555
2018-07-16T06:27:26.752Z,560
2018-07-16T06:27:52.247Z,565
2018-07-16T06:28:17.719Z,570
2018-07-16T06:28:43.218Z,580
2018-07-16T06:29:57.032Z,605
2018-07-16T06:30:22.526Z,625
2018-07-16T06:30:48.035Z,640
2018-07-16T06:31:13.550Z,650
2018-07-16T06:31:39.041Z,665
2018-07-16T06:32:04.519Z,660
2018-07-16T06:32:30.078Z,660
2018-07-16T06:32:55.523Z,655
2018-07-16T06:33:21.011Z,650
2018-07-16T06:33:46.521Z,645
2018-07-16T06:34:12.031Z,650
2018-07-16T06:34:37.498Z,660
2018-07-16T06:35:03.018Z,660
2018-07-16T06:35:28.527Z,660
2018-07-16T06:35:54.029Z,660
2018-07-16T06:36:19.558Z,660
2018-07-16T06:36:45.073Z,655
2018-07-16T06:37:10.540Z,660
2018-07-16T06:37:36.072Z,665
2018-07-16T06:38:01.559Z,670
2018-07-16T06:38:27.074Z,670
2018-07-16T06:38:52.559Z,675
2018-07-16T06:39:18.055Z,675
2018-07-16T06:39:43.645Z,675
2018-07-16T06:40:09.186Z,680
2018-07-16T06:40:34.790Z,685
2018-07-16T06:41:00.444Z,690
2018-07-16T06:41:25.929Z,700
2018-07-16T06:41:51.083Z,700
2018-07-16T06:42:16.572Z,700
2018-07-16T06:42:42.049Z,705
2018-07-16T06:43:07.573Z,705
2018-07-16T06:43:33.106Z,700
2018-07-16T06:43:58.590Z,690
2018-07-16T06:44:24.094Z,685
2018-07-16T06:44:49.601Z,680
2018-07-16T06:45:15.066Z,675
2018-07-16T06:45:40.571Z,670
2018-07-16T06:46:06.077Z,670
2018-07-16T06:46:31.587Z,670
2018-07-16T06:46:57.066Z,685
2018-07-16T06:47:22.545Z,695
2018-07-16T06:47:48.099Z,705
2018-07-16T06:48:13.565Z,730
2018-07-16T06:48:39.063Z,750
2018-07-16T06:49:04.550Z,765
2018-07-16T06:49:30.056Z,790
2018-07-16T06:49:55.545Z,805
2018-07-16T06:50:21.014Z,815
2018-07-16T06:50:46.506Z,815
2018-07-16T06:51:11.984Z,800
2018-07-16T06:51:37.498Z,785
2018-07-16T06:52:02.989Z,775
2018-07-16T06:52:28.464Z,755
2018-07-16T06:52:53.991Z,745
2018-07-16T06:53:19.491Z,730
2018-07-16T06:53:45.023Z,730
2018-07-16T06:54:10.514Z,740
2018-07-16T06:54:36.029Z,765
2018-07-16T06:55:01.532Z,785
2018-07-16T06:55:27.021Z,805
2018-07-16T06:55:52.490Z,830
2018-07-16T06:56:18.020Z,845
2018-07-16T06:56:43.518Z,865
2018-07-16T06:57:09.005Z,860
2018-07-16T06:57:34.490Z,815
2018-07-16T06:57:59.990Z,725
2018-07-16T06:58:25.482Z,610
2018-07-16T06:58:50.960Z,500
2018-07-16T06:59:16.436Z,410
2018-07-16T06:59:41.931Z,355
2018-07-16T07:00:07.409Z,335
2018-07-16T07:00:32.902Z,310
2018-07-16T07:00:58.378Z,295
2018-07-16T07:01:23.863Z,290
2018-07-16T07:01:49.352Z,280
2018-07-16T07:02:14.918Z,275
2018-07-16T07:02:40.378Z,265
2018-07-16T07:03:05.895Z,260
2018-07-16T07:03:31.394Z,255
2018-07-16T07:03:56.885Z,250
2018-07-16T07:04:22.469Z,245
2018-07-16T07:04:47.929Z,240
2018-07-16T07:05:13.459Z,235
2018-07-16T07:05:39.892Z,230
2018-07-16T07:06:04.530Z,225
2018-07-16T07:06:30.026Z,225
2018-07-16T07:06:55.566Z,225
2018-07-16T07:07:21.056Z,220
2018-07-16T07:07:46.566Z,215
2018-07-16T07:08:12.071Z,215
2018-07-16T07:08:37.561Z,215
2018-07-16T07:09:03.056Z,210
2018-07-16T07:09:28.575Z,210
2018-07-16T07:09:54.071Z,205
2018-07-16T07:10:19.542Z,200
2018-07-16T07:10:45.042Z,200
2018-07-16T07:11:10.574Z,200
2018-07-16T07:11:36.079Z,200
2018-07-16T07:12:01.552Z,200
2018-07-16T07:12:27.071Z,195
2018-07-16T07:12:52.556Z,195
2018-07-16T07:13:18.049Z,195
2018-07-16T07:13:43.553Z,195
2018-07-16T07:14:09.064Z,195
2018-07-16T07:14:34.599Z,190
2018-07-16T07:15:00.096Z,190
2018-07-16T07:15:25.565Z,195
2018-07-16T07:15:51.078Z,195
2018-07-16T07:16:16.547Z,195
2018-07-16T07:16:42.084Z,195
2018-07-16T07:17:07.567Z,195
2018-07-16T07:17:33.058Z,195
2018-07-16T07:17:58.552Z,200
2018-07-16T07:18:24.091Z,200
2018-07-16T07:18:49.598Z,205
2018-07-16T07:19:15.092Z,205
2018-07-16T07:19:40.576Z,205
2018-07-16T07:20:06.080Z,205
2018-07-16T07:20:31.592Z,210
2018-07-16T07:20:57.100Z,210
2018-07-16T07:21:22.599Z,215
2018-07-16T07:21:48.087Z,215
2018-07-16T07:22:13.585Z,210
2018-07-16T07:22:39.123Z,215
2018-07-16T07:23:04.604Z,215
2018-07-16T07:23:30.165Z,220
2018-07-16T07:23:55.661Z,225
2018-07-16T07:24:21.195Z,220
2018-07-16T07:24:46.674Z,225
2018-07-16T07:25:12.144Z,225
2018-07-16T07:25:37.740Z,230
2018-07-16T07:26:03.113Z,230
2018-07-16T07:26:28.585Z,235
2018-07-16T07:26:54.103Z,235
2018-07-16T07:27:19.624Z,240
2018-07-16T07:27:45.072Z,250
2018-07-16T07:28:10.560Z,250
2018-07-16T07:28:36.025Z,250
2018-07-16T07:29:01.592Z,255
2018-07-16T07:29:27.019Z,255
2018-07-16T07:29:52.533Z,265
2018-07-16T07:30:18.061Z,275
2018-07-16T07:30:43.517Z,290
2018-07-16T07:31:09.041Z,315
2018-07-16T07:31:34.548Z,340
2018-07-16T07:32:00.037Z,375
2018-07-16T07:32:25.547Z,405
2018-07-16T07:32:51.019Z,440
2018-07-16T07:33:16.544Z,510
2018-07-16T07:33:42.070Z,715
2018-07-16T07:34:07.552Z,1095
2018-07-16T07:34:33.088Z,1440
2018-07-16T07:34:58.608Z,1745
2018-07-16T07:35:24.128Z,1980
2018-07-16T07:35:49.618Z,2115
2018-07-16T07:36:15.097Z,2180
2018-07-16T07:36:40.556Z,2240
2018-07-16T07:37:06.071Z,2275
2018-07-16T07:37:31.570Z,2350
2018-07-16T07:37:57.073Z,2585
2018-07-16T07:38:22.585Z,2740
2018-07-16T07:38:48.076Z,2745
2018-07-16T07:39:13.564Z,2645
2018-07-16T07:39:39.086Z,2500
2018-07-16T07:40:04.753Z,2325
2018-07-16T07:40:30.255Z,2220
2018-07-16T07:40:56.018Z,2255
2018-07-16T07:41:21.453Z,2350
2018-07-16T07:41:46.974Z,2440
2018-07-16T07:42:12.466Z,2515
2018-07-16T07:42:37.958Z,2565
2018-07-16T07:43:03.472Z,2710
2018-07-16T07:43:28.942Z,2890
2018-07-16T07:43:54.424Z,2895
2018-07-16T07:44:19.935Z,2750
2018-07-16T07:44:45.417Z,2480
2018-07-16T07:45:10.926Z,2175
2018-07-16T07:45:36.410Z,1910
2018-07-16T07:46:01.934Z,1655
2018-07-16T07:46:27.452Z,1550
2018-07-16T07:46:52.931Z,1475
2018-07-16T07:47:18.449Z,1410
2018-07-16T07:47:43.993Z,1385
2018-07-16T07:48:09.471Z,1425
2018-07-16T07:48:34.967Z,1485
2018-07-16T07:49:00.464Z,1545
2018-07-16T07:49:25.947Z,1570
2018-07-16T07:49:51.430Z,1545
2018-07-16T07:50:16.940Z,1440
2018-07-16T07:50:42.440Z,1380
2018-07-16T07:51:07.911Z,1425
2018-07-16T07:51:33.415Z,1470
2018-07-16T07:51:58.900Z,1445
2018-07-16T07:52:24.412Z,1435
2018-07-16T07:52:49.917Z,1405
2018-07-16T07:53:15.431Z,1380
2018-07-16T07:53:40.937Z,1365
2018-07-16T07:54:06.493Z,1405
2018-07-16T07:54:32.081Z,1470
2018-07-16T07:54:57.774Z,1525
2018-07-16T07:55:23.351Z,1540
2018-07-16T07:55:48.435Z,1530
2018-07-16T07:56:13.953Z,1490
2018-07-16T07:56:39.433Z,1455
2018-07-16T07:57:04.944Z,1475
2018-07-16T07:57:30.457Z,1590
2018-07-16T07:57:55.964Z,1770
2018-07-16T07:58:21.452Z,1880
2018-07-16T07:58:46.947Z,1925
2018-07-16T07:59:12.470Z,1915
2018-07-16T07:59:37.986Z,1890
2018-07-16T08:00:03.471Z,1845
2018-07-16T08:00:28.977Z,1790
2018-07-16T08:00:54.511Z,1760
2018-07-16T08:01:20.156Z,1735
2018-07-16T08:01:45.669Z,1715
2018-07-16T08:02:11.127Z,1740
2018-07-16T08:02:36.625Z,1755
2018-07-16T08:03:02.114Z,1795
2018-07-16T08:03:27.736Z,1850
2018-07-16T08:03:53.109Z,1880
2018-07-16T08:04:18.581Z,1880
2018-07-16T08:04:44.115Z,1885
2018-07-16T08:05:09.607Z,1870
2018-07-16T08:05:35.112Z,1860
2018-07-16T08:06:00.583Z,1825
2018-07-16T08:06:26.070Z,1780
2018-07-16T08:06:51.570Z,1760
2018-07-16T08:07:17.070Z,1725
2018-07-16T08:07:42.531Z,1685
2018-07-16T08:08:08.046Z,1665
2018-07-16T08:08:33.540Z,1690
2018-07-16T08:08:59.050Z,1725
2018-07-16T08:09:24.592Z,1770
2018-07-16T08:09:50.066Z,1805
2018-07-16T08:10:15.548Z,1825
2018-07-16T08:10:41.037Z,1790
2018-07-16T08:11:06.542Z,1690
2018-07-16T08:11:32.060Z,1530
2018-07-16T08:11:57.538Z,1370
2018-07-16T08:12:23.056Z,1265
2018-07-16T08:12:48.785Z,1190
2018-07-16T08:13:14.292Z,1125
2018-07-16T08:13:39.889Z,1045
2018-07-16T08:14:05.369Z,975
2018-07-16T08:14:30.840Z,915
2018-07-16T08:14:56.352Z,855
2018-07-16T08:15:21.846Z,770
2018-07-16T08:15:47.317Z,670
2018-07-16T08:16:12.810Z,565
2018-07-16T08:16:38.301Z,445
2018-07-16T08:17:03.819Z,360
2018-07-16T08:17:29.295Z,325
2018-07-16T08:17:54.800Z,300
2018-07-16T08:18:20.290Z,290
2018-07-16T08:18:45.768Z,280
2018-07-16T08:19:11.268Z,275
2018-07-16T08:19:36.760Z,275
2018-07-16T08:20:02.290Z,270
2018-07-16T08:20:27.781Z,265
2018-07-16T08:20:53.330Z,260
2018-07-16T08:21:18.793Z,260
2018-07-16T08:21:44.297Z,255
2018-07-16T08:22:09.780Z,255
2018-07-16T08:22:35.413Z,255
2018-07-16T08:23:00.894Z,250
2018-07-16T08:23:26.384Z,250
2018-07-16T08:23:51.891Z,250
2018-07-16T08:24:17.421Z,250
2018-07-16T08:24:42.910Z,250
2018-07-16T08:25:08.393Z,250
2018-07-16T08:25:33.880Z,250
2018-07-16T08:25:59.358Z,245
2018-07-16T08:26:24.853Z,245
2018-07-16T08:26:50.328Z,245
2018-07-16T08:27:15.821Z,245
2018-07-16T08:27:41.322Z,240
2018-07-16T08:28:06.874Z,240
2018-07-16T08:28:32.355Z,240
2018-07-16T08:28:57.871Z,235
2018-07-16T08:29:23.354Z,235
2018-07-16T08:29:48.833Z,230
2018-07-16T08:30:14.380Z,230
2018-07-16T08:30:39.836Z,225
2018-07-16T08:31:05.352Z,225
2018-07-16T08:31:30.839Z,225
2018-07-16T08:31:56.350Z,225
2018-07-16T08:32:21.851Z,220
2018-07-16T08:32:47.319Z,220
2018-07-16T08:33:12.803Z,215
2018-07-16T08:33:38.301Z,215
2018-07-16T08:34:03.771Z,210
2018-07-16T08:34:29.244Z,210
2018-07-16T08:34:54.723Z,205
2018-07-16T08:35:20.223Z,205
2018-07-16T08:35:45.729Z,205
2018-07-16T08:36:11.246Z,205
2018-07-16T08:36:36.752Z,200
2018-07-16T08:37:02.274Z,200
2018-07-16T08:37:27.789Z,200
2018-07-16T08:37:53.324Z,200
2018-07-16T08:38:18.798Z,200
2018-07-16T08:38:44.295Z,195
2018-07-16T08:39:09.835Z,195
2018-07-16T08:39:35.276Z,195
2018-07-16T08:40:00.758Z,195
2018-07-16T08:40:26.236Z,195
2018-07-16T08:40:51.694Z,190
2018-07-16T08:41:17.180Z,190
2018-07-16T08:41:42.686Z,195
2018-07-16T08:42:08.216Z,190
2018-07-16T08:42:33.699Z,185
2018-07-16T08:42:59.188Z,185
2018-07-16T08:43:24.684Z,185
2018-07-16T08:43:50.233Z,180
2018-07-16T08:44:15.744Z,180
2018-07-16T08:44:41.235Z,180
2018-07-16T08:45:06.741Z,180
2018-07-16T08:45:32.235Z,175
2018-07-16T08:45:57.735Z,175
2018-07-16T08:46:23.357Z,180
2018-07-16T08:46:48.725Z,175
2018-07-16T08:47:14.488Z,175
2018-07-16T08:47:39.973Z,175
2018-07-16T08:48:05.511Z,175
2018-07-16T08:48:31.019Z,175
2018-07-16T08:48:56.530Z,175
2018-07-16T08:49:22.027Z,170
2018-07-16T08:49:47.515Z,170
2018-07-16T08:50:13.024Z,170
2018-07-16T08:50:38.517Z,170
2018-07-16T08:51:04.073Z,170
2018-07-16T08:51:29.576Z,170
2018-07-16T08:51:55.066Z,170
2018-07-16T08:52:20.580Z,165
2018-07-16T08:52:46.125Z,165
2018-07-16T08:54:10.164Z,165
2018-07-16T08:54:35.665Z,165
2018-07-16T08:55:01.147Z,165
2018-07-16T08:55:26.625Z,165
2018-07-16T08:55:52.137Z,165
2018-07-16T08:56:17.639Z,165
2018-07-16T08:56:43.151Z,165
2018-07-16T08:57:08.613Z,165
2018-07-16T08:57:34.070Z,165
2018-07-16T08:57:59.554Z,165
2018-07-16T08:58:25.074Z,165
2018-07-16T08:58:50.586Z,165
2018-07-16T08:59:16.160Z,165
2018-07-16T08:59:41.600Z,165
2018-07-16T09:00:07.106Z,165
2018-07-16T09:00:32.605Z,160
2018-07-16T09:00:58.100Z,165
2018-07-16T09:01:23.589Z,160
2018-07-16T09:02:32.306Z,165
2018-07-16T09:02:57.797Z,160
2018-07-16T09:03:23.290Z,160
2018-07-16T09:03:48.764Z,165
2018-07-16T09:04:14.258Z,165
2018-07-16T09:04:39.784Z,160
2018-07-16T09:05:05.303Z,160
2018-07-16T09:05:30.800Z,160
2018-07-16T09:05:56.314Z,160
2018-07-16T09:06:21.832Z,160
2018-07-16T09:06:47.333Z,160
2018-07-16T09:07:12.923Z,160
2018-07-16T09:07:38.326Z,160
2018-07-16T09:08:03.836Z,160
2018-07-16T09:08:29.294Z,160
2018-07-16T09:08:54.800Z,160
2018-07-16T09:09:20.279Z,160
2018-07-16T09:09:45.805Z,160
2018-07-16T09:10:11.308Z,160
2018-07-16T09:10:36.836Z,160
2018-07-16T09:11:02.433Z,160
2018-07-16T09:11:27.802Z,160
2018-07-16T09:11:53.355Z,160
2018-07-16T09:12:18.871Z,160
2018-07-16T09:12:44.369Z,160
2018-07-16T09:13:09.893Z,160
2018-07-16T09:13:35.438Z,155
2018-07-16T09:14:00.952Z,160
2018-07-16T09:14:26.369Z,160
2018-07-16T09:14:51.878Z,155
2018-07-16T09:15:17.353Z,160
2018-07-16T09:15:42.864Z,155
2018-07-16T09:16:08.369Z,155
2018-07-16T09:16:33.884Z,160
2018-07-16T09:16:59.473Z,155
2018-07-16T09:17:24.871Z,155
2018-07-16T09:17:50.379Z,155
2018-07-16T09:18:15.860Z,155
2018-07-16T09:18:41.323Z,155
2018-07-16T09:19:06.821Z,155
2018-07-16T09:19:32.291Z,155
2018-07-16T09:19:57.782Z,155
2018-07-16T09:20:23.273Z,155
2018-07-16T09:20:48.746Z,155
2018-07-16T09:21:14.226Z,155
2018-07-16T09:21:39.686Z,160
2018-07-16T09:22:05.244Z,155
2018-07-16T09:22:30.705Z,155
2018-07-16T09:22:56.223Z,155
2018-07-16T09:23:21.736Z,155
2018-07-16T09:23:47.229Z,160
2018-07-16T09:24:12.719Z,155
2018-07-16T09:24:38.225Z,155
2018-07-16T09:25:03.703Z,155
2018-07-16T09:25:29.191Z,155
2018-07-16T09:25:54.668Z,155
2018-07-16T09:26:20.180Z,155
2018-07-16T09:26:45.702Z,155
2018-07-16T09:27:11.208Z,155
2018-07-16T09:27:36.728Z,155
2018-07-16T09:28:02.263Z,155
2018-07-16T09:28:27.770Z,150
2018-07-16T09:28:53.268Z,155
2018-07-16T09:29:18.748Z,155
2018-07-16T09:29:44.252Z,150
2018-07-16T09:30:09.780Z,150
2018-07-16T09:30:35.291Z,155
2018-07-16T09:31:00.766Z,155
2018-07-16T09:31:26.547Z,155
2018-07-16T09:31:52.158Z,155
2018-07-16T09:32:17.648Z,155
2018-07-16T09:32:43.169Z,155
2018-07-16T09:33:08.613Z,155
2018-07-16T09:33:34.101Z,155
2018-07-16T09:33:59.604Z,155
2018-07-16T09:34:25.114Z,155
2018-07-16T09:34:50.605Z,155
2018-07-16T09:35:16.133Z,155
2018-07-16T09:35:41.616Z,155
2018-07-16T09:36:07.126Z,155
2018-07-16T09:36:32.672Z,155
2018-07-16T09:36:58.156Z,155
2018-07-16T09:37:23.621Z,155
2018-07-16T09:37:49.091Z,155
2018-07-16T09:38:14.576Z,155
2018-07-16T09:38:40.077Z,155
2018-07-16T09:39:05.578Z,150
2018-07-16T09:39:31.093Z,150
2018-07-16T09:39:56.593Z,150
2018-07-16T09:40:22.087Z,150
2018-07-16T09:40:47.564Z,150
2018-07-16T09:41:13.080Z,155
2018-07-16T09:41:38.583Z,150
2018-07-16T09:42:04.073Z,150
2018-07-16T09:42:29.537Z,150
2018-07-16T09:42:55.005Z,150
2018-07-16T09:43:20.502Z,150
2018-07-16T09:43:46.008Z,150
2018-07-16T09:44:11.476Z,150
2018-07-16T09:44:36.988Z,150
2018-07-16T09:45:02.484Z,150
2018-07-16T09:45:28.004Z,150
2018-07-16T09:45:53.558Z,150
2018-07-16T09:46:19.043Z,150
2018-07-16T09:46:44.550Z,150
2018-07-16T09:47:10.065Z,150
2018-07-16T09:47:35.610Z,150
2018-07-16T09:48:01.057Z,150
2018-07-16T09:48:26.556Z,145
2018-07-16T09:48:51.997Z,150
2018-07-16T09:49:17.519Z,150
2018-07-16T09:49:43.003Z,145
2018-07-16T09:50:08.493Z,150
2018-07-16T09:50:34.016Z,145
2018-07-16T09:50:59.463Z,145
2018-07-16T09:51:24.949Z,145
2018-07-16T09:51:50.477Z,145
2018-07-16T09:52:15.957Z,145
2018-07-16T09:52:41.475Z,145
2018-07-16T09:53:07.109Z,145
2018-07-16T09:53:32.643Z,145
2018-07-16T09:53:58.146Z,145
2018-07-16T09:54:23.652Z,145
2018-07-16T09:54:49.135Z,145
2018-07-16T09:55:14.608Z,145
2018-07-16T09:55:40.129Z,145
2018-07-16T09:56:05.659Z,145
2018-07-16T09:56:31.068Z,145
2018-07-16T09:56:56.545Z,145
2018-07-16T09:57:22.066Z,145
2018-07-16T09:57:47.584Z,145
2018-07-16T09:58:13.060Z,145
2018-07-16T09:58:38.543Z,145
2018-07-16T09:59:04.023Z,145
2018-07-16T09:59:29.515Z,145
2018-07-16T09:59:55.119Z,145
2018-07-16T10:00:20.624Z,145
2018-07-16T10:00:46.127Z,145
2018-07-16T10:01:11.584Z,145
2018-07-16T10:01:37.075Z,145
2018-07-16T10:02:02.526Z,145
2018-07-16T10:02:28.058Z,145
2018-07-16T10:02:53.565Z,145
2018-07-16T10:03:19.071Z,145
2018-07-16T10:03:44.514Z,140
2018-07-16T10:04:09.998Z,140
2018-07-16T10:04:35.531Z,140
2018-07-16T10:05:00.983Z,140
2018-07-16T10:05:26.467Z,140
2018-07-16T10:05:51.909Z,140
2018-07-16T10:06:17.420Z,140
2018-07-16T10:06:42.917Z,140
2018-07-16T10:07:08.437Z,140